.
WxDataArchive / Data Records for 2008-05-16
2008-05-15 May 2008 2008-05-17

Data Records for Friday, 16 May 2008

Time	Temp	Chill	HIndex	Humid	Dewpt	 Wind 	HiWind	WindDir	Rain 	Barom 
-----	----	-----	------	-----	-----	------	------	-------	-----	----- 
00:00	48.5	48.5	48.5	94	46.9	0	0	---	0.01	29.889 
00:05	48.3	48.3	48.3	94	46.7	0	0	---	0.00	29.890 
00:10	48.3	48.3	48.3	94	46.7	0	0	---	0.00	29.893 
00:15	48.3	48.3	48.3	94	46.7	0	1	135	0.01	29.894 
00:20	48.3	48.3	48.3	94	46.7	0	1	135	0.01	29.894 
00:25	48.3	48.3	48.3	94	46.7	0	1	135	0.00	29.892 
00:30	48.3	48.3	48.3	94	46.7	0	0	---	0.01	29.891 
00:35	48.2	48.2	48.2	94	46.6	0	1	135	0.00	29.892 
00:40	48.2	48.2	48.2	94	46.6	0	0	---	0.01	29.894 
00:45	48.2	48.2	48.2	94	46.6	0	0	---	0.00	29.898 
00:50	48.2	48.2	48.2	94	46.6	0	1	135	0.00	29.899 
00:55	48.2	48.2	48.2	95	46.8	0	0	---	0.00	29.895 
01:00	48.2	48.2	48.2	95	46.8	0	0	---	0.00	29.894 
01:05	48.2	48.2	48.2	95	46.8	0	0	---	0.01	29.894 
01:10	48.2	48.2	48.2	95	46.8	0	0	---	0.00	29.890 
01:15	48.2	48.2	48.2	95	46.8	0	0	---	0.00	29.889 
01:20	48.2	48.2	48.2	95	46.8	0	0	---	0.00	29.886 
01:25	48.2	48.2	48.2	95	46.8	0	0	---	0.00	29.889 
01:30	48.2	48.2	48.2	95	46.8	0	0	---	0.00	29.886 
01:35	48.2	48.2	48.2	95	46.8	0	0	---	0.00	29.885 
01:40	48.2	48.2	48.2	95	46.8	0	0	---	0.01	29.890 
01:45	48.2	48.2	48.2	95	46.8	0	0	---	0.00	29.891 
01:50	48.2	48.2	48.2	95	46.8	0	1	135	0.00	29.896 
01:55	48.2	48.2	48.2	95	46.8	0	0	---	0.00	29.905 
02:00	48.2	48.2	48.2	95	46.8	0	1	135	0.00	29.905 
02:05	48.0	48.0	48.0	95	46.6	0	1	135	0.00	29.896 
02:10	48.0	48.0	48.0	95	46.6	0	1	135	0.00	29.890 
02:15	48.0	48.0	48.0	95	46.6	0	1	135	0.00	29.889 
02:20	47.9	47.9	47.9	95	46.5	0	1	135	0.00	29.888 
02:25	47.7	47.7	47.7	95	46.3	0	0	---	0.00	29.888 
02:30	47.7	47.7	47.7	95	46.3	0	0	---	0.00	29.888 
02:35	47.7	47.7	47.7	95	46.3	0	0	---	0.00	29.887 
02:40	47.7	47.7	47.7	95	46.3	0	1	135	0.00	29.888 
02:45	47.7	47.7	47.7	95	46.3	0	0	---	0.00	29.884 
02:50	47.6	47.6	47.6	95	46.2	0	0	---	0.00	29.887 
02:55	47.6	47.6	47.6	96	46.5	0	0	---	0.00	29.886 
03:00	47.6	47.6	47.6	96	46.5	0	1	135	0.00	29.885 
03:05	47.6	47.6	47.6	96	46.5	0	0	---	0.00	29.885 
03:10	47.6	47.6	47.6	96	46.5	0	0	---	0.00	29.881 
03:15	47.6	47.6	47.6	96	46.5	0	0	---	0.00	29.876 
03:20	47.6	47.6	47.6	96	46.5	0	0	---	0.00	29.878 
03:25	47.6	47.6	47.6	96	46.5	0	0	---	0.00	29.877 
03:30	47.6	47.6	47.6	96	46.5	0	0	---	0.00	29.875 
03:35	47.4	47.4	47.4	96	46.3	0	0	---	0.00	29.873 
03:40	47.4	47.4	47.4	96	46.3	0	0	---	0.00	29.873 
03:45	47.4	47.4	47.4	96	46.3	0	0	---	0.00	29.866 
03:50	47.4	47.4	47.4	96	46.3	0	0	---	0.00	29.864 
03:55	47.3	47.3	47.3	96	46.2	0	0	---	0.00	29.863 
04:00	47.3	47.3	47.3	96	46.2	0	0	---	0.00	29.860 
04:05	47.3	47.3	47.3	96	46.2	0	0	---	0.00	29.857 
04:10	47.3	47.3	47.3	96	46.2	0	0	---	0.00	29.859 
04:15	47.3	47.3	47.3	96	46.2	0	1	135	0.00	29.857 
04:20	47.1	47.1	47.1	96	46.0	0	1	135	0.00	29.856 
04:25	47.1	47.1	47.1	96	46.0	0	0	---	0.00	29.852 
04:30	47.1	47.1	47.1	96	46.0	0	0	---	0.00	29.850 
04:35	47.1	47.1	47.1	96	46.0	0	0	---	0.00	29.853 
04:40	47.1	47.1	47.1	96	46.0	0	0	---	0.00	29.854 
04:45	47.0	47.0	47.0	96	45.9	0	0	---	0.00	29.853 
04:50	47.0	47.0	47.0	96	45.9	0	1	135	0.00	29.858 
04:55	47.0	47.0	47.0	96	45.9	0	0	---	0.00	29.858 
05:00	47.0	47.0	47.0	96	45.9	0	1	135	0.00	29.859 
05:05	47.0	47.0	47.0	96	45.9	0	0	---	0.00	29.861 
05:10	47.0	47.0	47.0	96	45.9	0	0	---	0.00	29.861 
05:15	47.0	47.0	47.0	96	45.9	0	0	---	0.00	29.861 
05:20	47.0	47.0	47.0	96	45.9	0	0	---	0.00	29.859 
05:25	46.8	46.8	46.8	96	45.7	0	0	---	0.00	29.860 
05:30	46.8	46.8	46.8	96	45.7	0	0	---	0.00	29.861 
05:35	46.8	46.8	46.8	96	45.7	0	0	---	0.00	29.859 
05:40	46.8	46.8	46.8	96	45.7	0	0	---	0.00	29.861 
05:45	46.8	46.8	46.8	96	45.7	0	0	---	0.00	29.863 
05:50	46.8	46.8	46.8	96	45.7	0	0	---	0.00	29.866 
05:55	47.0	47.0	47.0	96	45.9	0	0	---	0.00	29.867 
06:00	47.0	47.0	47.0	96	45.9	0	0	---	0.00	29.867 
06:05	47.0	47.0	47.0	96	45.9	0	0	---	0.00	29.866 
06:10	47.1	47.1	47.1	96	46.0	0	0	---	0.00	29.867 
06:15	47.1	47.1	47.1	96	46.0	0	0	---	0.00	29.869 
06:20	47.1	47.1	47.1	96	46.0	0	0	---	0.00	29.871 
06:25	47.3	47.3	47.3	96	46.2	0	0	---	0.00	29.873 
06:30	47.3	47.3	47.3	96	46.2	0	0	---	0.00	29.876 
06:35	47.4	47.4	47.4	96	46.3	0	0	---	0.00	29.877 
06:40	47.4	47.4	47.4	96	46.3	0	1	135	0.00	29.878 
06:45	47.6	47.6	47.6	96	46.5	0	1	135	0.00	29.878 
06:50	47.7	47.7	47.7	96	46.6	0	0	---	0.00	29.877 
06:55	47.7	47.7	47.7	96	46.6	0	1	135	0.00	29.878 
07:00	47.9	47.9	47.9	96	46.8	0	1	135	0.00	29.879 
07:05	48.0	48.0	48.0	96	46.9	0	1	135	0.00	29.878 
07:10	48.0	48.0	48.0	96	46.9	0	1	135	0.00	29.879 
07:15	48.0	48.0	48.0	96	46.9	0	1	135	0.00	29.881 
07:20	48.2	48.2	48.2	96	47.1	0	1	135	0.00	29.882 
07:25	48.5	48.5	48.5	96	47.4	0	1	135	0.00	29.882 
07:30	48.6	48.6	48.6	95	47.2	0	1	135	0.00	29.886 
07:35	48.8	48.8	48.8	95	47.4	0	1	135	0.00	29.886 
07:40	48.9	48.9	48.9	95	47.5	0	1	135	0.00	29.887 
07:45	49.1	49.1	49.1	94	47.4	0	1	135	0.00	29.887 
07:50	49.4	49.4	49.4	94	47.7	0	1	135	0.00	29.886 
07:55	49.5	49.5	49.5	93	47.6	0	2	135	0.00	29.888 
08:00	49.6	49.6	49.6	93	47.7	0	1	180	0.00	29.888 
08:05	49.8	49.8	49.8	92	47.6	0	2	180	0.00	29.890 
08:10	50.1	50.1	50.1	92	47.9	0	2	180	0.00	29.890 
08:15	50.4	50.4	50.4	91	47.9	0	1	180	0.00	29.892 
08:20	50.8	50.8	50.8	90	48.0	0	1	180	0.00	29.891 
08:25	51.3	51.3	51.3	90	48.5	0	1	180	0.00	29.890 
08:30	51.9	51.9	51.9	88	48.5	0	1	180	0.00	29.891 
08:35	52.2	52.2	52.2	85	47.8	0	1	338	0.00	29.888 
08:40	53.1	53.1	53.1	84	48.4	1	2	338	0.00	29.885 
08:45	53.9	53.9	53.9	82	48.5	0	2	338	0.00	29.883 
08:50	54.8	54.8	54.8	78	48.1	1	4	248	0.00	29.882 
08:55	55.6	55.6	55.6	77	48.5	1	3	248	0.00	29.883 
09:00	55.9	55.9	55.9	75	48.1	1	3	270	0.00	29.882 
09:05	55.9	55.9	55.9	71	46.6	2	3	338	0.00	29.885 
09:10	56.3	56.3	56.3	73	47.8	1	4	338	0.00	29.883 
09:15	56.5	56.5	56.5	67	45.7	2	4	338	0.00	29.885 
09:20	56.7	56.7	56.7	67	45.9	1	4	248	0.00	29.884 
09:25	56.7	56.7	56.7	66	45.5	1	3	248	0.00	29.884 
09:30	56.9	56.9	56.9	65	45.3	1	4	315	0.00	29.882 
09:35	57.2	57.2	57.2	63	44.7	1	3	315	0.00	29.880 
09:40	57.5	57.5	57.5	64	45.4	1	4	338	0.00	29.880 
09:45	58.1	58.1	58.1	65	46.4	2	3	315	0.00	29.877 
09:50	58.1	58.1	58.1	62	45.1	1	4	315	0.00	29.877 
09:55	58.3	58.3	58.3	63	45.8	2	3	315	0.00	29.876 
10:00	58.7	58.7	58.7	61	45.3	1	4	338	0.00	29.877 
10:05	59.2	59.2	59.2	62	46.2	1	3	22	0.00	29.873 
10:10	59.5	59.5	59.5	62	46.5	1	4	45	0.00	29.872 
10:15	59.6	59.6	59.6	61	46.1	2	5	315	0.00	29.871 
10:20	59.9	59.9	59.9	57	44.6	1	3	270	0.00	29.871 
10:25	60.2	60.2	60.2	52	42.5	1	4	270	0.00	29.871 
10:30	60.5	60.5	60.5	53	43.3	2	5	270	0.00	29.869 
10:35	60.9	60.9	60.9	48	41.1	1	3	315	0.00	29.865 
10:40	61.5	61.5	61.5	50	42.7	1	4	270	0.00	29.866 
10:45	62.0	62.0	62.0	47	41.5	2	4	270	0.00	29.860 
10:50	62.1	62.1	62.1	47	41.6	1	4	315	0.00	29.865 
10:55	62.1	62.1	62.1	47	41.6	1	3	315	0.00	29.863 
11:00	62.6	62.6	62.6	46	41.5	1	5	270	0.00	29.863 
11:05	63.5	63.5	63.5	49	44.0	0	2	270	0.00	29.858 
11:10	63.9	63.9	63.9	45	42.1	1	3	45	0.00	29.855 
11:15	63.7	63.7	63.7	39	38.3	1	4	292	0.00	29.854 
11:20	63.5	63.5	63.5	37	36.8	1	3	338	0.00	29.854 
11:25	63.5	63.5	63.5	38	37.4	1	6	0	0.00	29.854 
11:30	63.7	63.7	63.7	44	41.4	1	4	292	0.00	29.853 
11:35	64.2	64.2	64.2	32	33.7	1	3	292	0.00	29.852 
11:40	63.9	63.9	63.9	35	35.7	2	4	270	0.00	29.849 
11:45	63.9	63.9	63.9	38	37.8	2	6	315	0.00	29.849 
11:50	63.9	63.9	63.9	37	37.1	1	3	315	0.00	29.847 
11:55	64.3	64.3	64.3	43	41.3	1	3	338	0.00	29.845 
12:00	64.5	64.5	64.5	37	37.6	2	4	270	0.00	29.844 
12:05	64.7	64.7	64.7	32	34.2	1	5	315	0.00	29.844 
12:10	64.8	64.8	64.8	35	36.5	1	6	270	0.00	29.840 
12:15	65.0	65.0	65.0	34	35.9	2	4	315	0.00	29.841 
12:20	65.0	65.0	65.0	37	38.1	1	4	270	0.00	29.839 
12:25	65.3	65.3	65.3	36	37.7	1	3	0	0.00	29.837 
12:30	65.5	65.5	65.5	39	39.9	1	2	315	0.00	29.831 
12:35	65.8	65.8	65.8	35	37.4	1	5	338	0.00	29.829 
12:40	65.8	65.8	65.8	32	35.1	1	3	315	0.00	29.829 
12:45	66.0	66.0	66.0	34	36.8	1	2	338	0.00	29.826 
12:50	66.0	66.0	66.0	36	38.3	2	4	270	0.00	29.829 
12:55	66.1	66.1	66.1	33	36.2	1	4	338	0.00	29.822 
13:00	66.6	66.6	66.6	38	40.2	1	4	315	0.00	29.820 
13:05	66.4	66.4	66.4	34	37.2	2	4	292	0.00	29.821 
13:10	66.6	66.6	66.6	34	37.3	1	3	315	0.00	29.820 
13:15	66.6	66.6	66.6	32	35.8	1	5	315	0.00	29.818 
13:20	66.8	66.8	66.8	35	38.3	1	3	315	0.00	29.815 
13:25	66.6	66.6	66.6	35	38.1	1	5	22	0.00	29.813 
13:30	66.8	66.8	66.8	36	39.0	1	2	338	0.00	29.811 
13:35	66.9	66.9	66.9	35	38.4	1	3	315	0.00	29.809 
13:40	66.9	66.9	66.9	35	38.4	2	3	315	0.00	29.815 
13:45	66.8	66.8	66.8	35	38.3	2	5	315	0.00	29.816 
13:50	67.3	67.3	67.3	36	39.4	1	5	270	0.00	29.815 
13:55	67.3	67.3	67.3	36	39.4	1	4	248	0.00	29.815 
14:00	66.9	66.9	66.9	32	36.1	1	4	315	0.00	29.817 
14:05	66.9	66.9	66.9	37	39.8	1	3	292	0.00	29.815 
14:10	67.3	67.3	67.3	35	38.7	1	3	338	0.00	29.815 
14:15	67.3	67.3	67.3	31	35.6	2	5	338	0.00	29.814 
14:20	67.6	67.6	67.6	31	35.9	1	4	225	0.00	29.815 
14:25	67.9	67.9	67.9	33	37.7	1	3	225	0.00	29.811 
14:30	67.9	67.9	67.9	30	35.3	1	4	292	0.00	29.807 
14:35	67.6	67.6	67.6	31	35.9	2	5	315	0.00	29.812 
14:40	67.6	67.6	67.6	31	35.9	1	3	248	0.00	29.805 
14:45	68.4	68.4	68.4	34	38.9	1	5	270	0.00	29.806 
14:50	67.8	67.8	67.8	33	37.6	1	3	338	0.00	29.807 
14:55	67.4	67.4	67.4	35	38.8	0	2	45	0.00	29.804 
15:00	67.6	67.6	67.6	35	39.0	1	3	0	0.00	29.803 
15:05	67.8	67.8	67.8	35	39.1	1	4	0	0.00	29.804 
15:10	68.1	68.1	68.1	34	38.7	2	5	0	0.00	29.805 
15:15	68.3	68.3	68.3	30	35.7	2	5	270	0.00	29.805 
15:20	68.3	68.3	68.3	33	38.1	1	3	338	0.00	29.804 
15:25	67.6	67.6	67.6	34	38.2	1	3	315	0.00	29.801 
15:30	67.9	67.9	67.9	33	37.7	2	5	248	0.00	29.800 
15:35	68.4	68.4	68.4	36	40.4	2	6	270	0.00	29.799 
15:40	68.3	68.3	68.3	34	38.8	2	4	248	0.00	29.798 
15:45	68.3	68.3	68.3	33	38.1	1	4	248	0.00	29.798 
15:50	68.1	68.1	68.1	35	39.4	1	4	225	0.00	29.793 
15:55	68.1	68.1	68.1	34	38.7	2	4	270	0.00	29.792 
16:00	68.3	68.3	68.3	35	39.6	2	4	248	0.00	29.791 
16:05	68.6	68.6	68.6	33	38.3	1	4	248	0.00	29.790 
16:10	68.6	68.6	68.6	31	36.8	2	5	248	0.00	29.791 
16:15	68.4	68.4	68.4	33	38.2	2	3	248	0.00	29.789 
16:20	67.8	67.8	67.8	34	38.4	1	4	248	0.00	29.790 
16:25	67.1	67.1	67.1	35	38.5	2	5	270	0.00	29.791 
16:30	67.4	67.4	67.4	33	37.3	2	4	292	0.00	29.791 
16:35	67.6	67.6	67.6	32	36.7	1	3	292	0.00	29.789 
16:40	67.4	67.4	67.4	32	36.5	1	4	270	0.00	29.789 
16:45	67.4	67.4	67.4	32	36.5	1	4	315	0.00	29.788 
16:50	67.6	67.6	67.6	34	38.2	1	4	315	0.00	29.787 
16:55	67.6	67.6	67.6	34	38.2	2	4	270	0.00	29.787 
17:00	67.8	67.8	67.8	30	35.2	2	4	248	0.00	29.787 
17:05	67.6	67.6	67.6	31	35.9	2	6	315	0.00	29.788 
17:10	67.3	67.3	67.3	33	37.2	2	5	270	0.00	29.788 
17:15	67.4	67.4	67.4	34	38.1	2	4	248	0.00	29.787 
17:20	67.4	67.4	67.4	32	36.5	2	5	270	0.00	29.786 
17:25	67.4	67.4	67.4	33	37.3	2	4	292	0.00	29.784 
17:30	67.3	67.3	67.3	31	35.6	2	4	248	0.00	29.780 
17:35	67.1	67.1	67.1	30	34.6	3	6	270	0.00	29.777 
17:40	66.9	66.9	66.9	29	33.6	2	5	315	0.00	29.778 
17:45	66.9	66.9	66.9	30	34.5	1	3	248	0.00	29.776 
17:50	66.9	66.9	66.9	32	36.1	1	4	315	0.00	29.774 
17:55	66.9	66.9	66.9	29	33.6	2	6	315	0.00	29.774 
18:00	66.8	66.8	66.8	30	34.4	2	4	270	0.00	29.774 
18:05	66.6	66.6	66.6	28	32.5	2	5	270	0.00	29.773 
18:10	66.4	66.4	66.4	30	34.0	1	3	270	0.00	29.773 
18:15	66.4	66.4	66.4	29	33.2	2	6	292	0.00	29.772 
18:20	66.3	66.3	66.3	28	32.2	2	4	248	0.00	29.771 
18:25	66.3	66.3	66.3	29	33.1	1	3	315	0.00	29.772 
18:30	66.3	66.3	66.3	31	34.8	0	2	315	0.00	29.772 
18:35	66.3	66.3	66.3	30	33.9	0	3	315	0.00	29.772 
18:40	66.1	66.1	66.1	30	33.8	1	3	338	0.00	29.773 
18:45	66.0	66.0	66.0	31	34.5	1	4	248	0.00	29.773 
18:50	65.6	65.6	65.6	31	34.1	1	2	292	0.00	29.772 
18:55	65.3	65.3	65.3	31	33.9	1	2	292	0.00	29.771 
19:00	65.2	65.2	65.2	34	36.1	1	3	248	0.00	29.773 
19:05	64.8	64.8	64.8	34	35.8	1	4	270	0.00	29.772 
19:10	64.5	64.5	64.5	34	35.5	1	3	248	0.00	29.773 
19:15	64.3	64.3	64.3	33	34.6	0	3	248	0.00	29.773 
19:20	64.0	64.0	64.0	34	35.1	0	1	248	0.00	29.772 
19:25	63.7	63.7	63.7	35	35.5	0	1	248	0.00	29.767 
19:30	63.5	63.5	63.5	34	34.6	0	1	248	0.00	29.765 
19:35	63.4	63.4	63.4	34	34.5	0	2	248	0.00	29.764 
19:40	63.1	63.1	63.1	37	36.4	0	1	248	0.00	29.760 
19:45	62.6	62.6	62.6	36	35.3	0	1	248	0.00	29.760 
19:50	62.3	62.3	62.3	39	37.0	0	1	248	0.00	29.759 
19:55	62.0	62.0	62.0	40	37.4	0	2	248	0.00	29.760 
20:00	61.6	61.6	61.6	42	38.3	0	1	248	0.00	29.760 
20:05	61.2	61.2	61.2	43	38.5	0	1	248	0.00	29.757 
20:10	60.9	60.9	60.9	45	39.4	0	1	248	0.00	29.757 
20:15	60.5	60.5	60.5	46	39.6	0	2	248	0.00	29.758 
20:20	60.4	60.4	60.4	46	39.5	0	1	248	0.00	29.758 
20:25	60.2	60.2	60.2	46	39.3	0	1	248	0.00	29.758 
20:30	60.2	60.2	60.2	47	39.9	0	3	248	0.00	29.757 
20:35	60.1	60.1	60.1	47	39.8	0	2	248	0.00	29.757 
20:40	59.9	59.9	59.9	47	39.6	0	2	248	0.00	29.758 
20:45	59.9	59.9	59.9	47	39.6	1	3	248	0.00	29.759 
20:50	59.9	59.9	59.9	47	39.6	1	2	248	0.00	29.760 
20:55	60.1	60.1	60.1	48	40.3	1	3	248	0.00	29.761 
21:00	60.1	60.1	60.1	48	40.3	2	4	248	0.00	29.764 
21:05	60.1	60.1	60.1	49	40.9	1	4	248	0.00	29.761 
21:10	59.9	59.9	59.9	50	41.2	1	3	248	0.00	29.764 
21:15	59.9	59.9	59.9	50	41.2	1	7	248	0.00	29.762 
21:20	59.8	59.8	59.8	50	41.1	2	5	248	0.00	29.758 
21:25	59.8	59.8	59.8	50	41.1	1	3	248	0.00	29.760 
21:30	59.8	59.8	59.8	50	41.1	1	3	248	0.00	29.758 
21:35	59.8	59.8	59.8	50	41.1	1	4	248	0.00	29.757 
21:40	59.6	59.6	59.6	50	40.9	1	5	248	0.00	29.755 
21:45	59.6	59.6	59.6	50	40.9	2	4	248	0.00	29.756 
21:50	59.6	59.6	59.6	50	40.9	1	5	270	0.00	29.756 
21:55	59.5	59.5	59.5	50	40.8	1	4	248	0.00	29.755 
22:00	59.6	59.6	59.6	50	40.9	2	6	248	0.00	29.754 
22:05	59.8	59.8	59.8	50	41.1	1	4	225	0.00	29.750 
22:10	59.8	59.8	59.8	50	41.1	2	5	225	0.00	29.750 
22:15	59.8	59.8	59.8	50	41.1	2	5	248	0.00	29.749 
22:20	59.9	59.9	59.9	50	41.2	1	4	248	0.00	29.745 
22:25	59.9	59.9	59.9	50	41.2	2	6	248	0.00	29.743 
22:30	59.8	59.8	59.8	50	41.1	2	5	248	0.00	29.739 
22:35	59.9	59.9	59.9	50	41.2	2	5	248	0.00	29.737 
22:40	59.9	59.9	59.9	51	41.7	1	4	248	0.00	29.737 
22:45	59.9	59.9	59.9	50	41.2	1	6	248	0.00	29.735 
22:50	59.9	59.9	59.9	51	41.7	1	5	248	0.00	29.735 
22:55	59.8	59.8	59.8	51	41.6	2	5	248	0.00	29.732 
23:00	59.8	59.8	59.8	51	41.6	2	7	248	0.00	29.732 
23:05	59.8	59.8	59.8	51	41.6	2	5	248	0.00	29.729 
23:10	59.8	59.8	59.8	51	41.6	2	9	248	0.00	29.725 
23:15	59.8	59.8	59.8	51	41.6	2	7	248	0.00	29.723 
23:20	59.8	59.8	59.8	52	42.1	2	6	248	0.00	29.722 
23:25	59.6	59.6	59.6	52	42.0	1	5	248	0.00	29.720 
23:30	59.6	59.6	59.6	53	42.4	2	4	248	0.00	29.718 
23:35	59.6	59.6	59.6	53	42.4	2	6	248	0.00	29.717 
23:40	59.6	59.6	59.6	53	42.4	2	5	248	0.00	29.715 
23:45	59.6	59.6	59.6	53	42.4	2	6	270	0.00	29.716 
23:50	59.6	59.6	59.6	53	42.4	3	6	248	0.00	29.713 
23:55	59.6	59.6	59.6	53	42.4	2	9	248	0.00	29.706 

CoCoRaHS
IN-AL-39
A2 Web Hosting
Creative Commons License
GoDaddy
Look for:

loaded 2017-10-19 14:26:40 • last modified 2010-11-18 10:43:29
Privacy PolicyDisclaimer
• wx.awcolley.com is powered by PmWiki v.2002016 •
• all content (unless otherwise noted) © 2017 A W Colley